sensor_id;sensor_type;location;lat;lon;timestamp;P1;durP1;ratioP1;P2;durP2;ratioP2
18999;SDS011;9633;50.980;13.850;2023-09-19T00:01:24;9.23;;;6.27;;
18999;SDS011;9633;50.980;13.850;2023-09-19T00:02:57;9.23;;;5.83;;
18999;SDS011;9633;50.980;13.850;2023-09-19T00:04:31;9.10;;;6.33;;
18999;SDS011;9633;50.980;13.850;2023-09-19T00:06:04;8.33;;;6.00;;
18999;SDS011;9633;50.980;13.850;2023-09-19T00:07:39;8.70;;;6.40;;
18999;SDS011;9633;50.980;13.850;2023-09-19T00:09:12;9.47;;;6.27;;
18999;SDS011;9633;50.980;13.850;2023-09-19T00:10:44;11.93;;;6.70;;
18999;SDS011;9633;50.980;13.850;2023-09-19T00:12:17;9.20;;;6.37;;
18999;SDS011;9633;50.980;13.850;2023-09-19T00:13:51;11.07;;;6.83;;
18999;SDS011;9633;50.980;13.850;2023-09-19T00:15:25;10.93;;;6.77;;
18999;SDS011;9633;50.980;13.850;2023-09-19T00:17:00;12.40;;;6.93;;
18999;SDS011;9633;50.980;13.850;2023-09-19T00:18:37;11.90;;;7.40;;
18999;SDS011;9633;50.980;13.850;2023-09-19T00:20:10;13.40;;;8.83;;
18999;SDS011;9633;50.980;13.850;2023-09-19T00:21:44;12.37;;;8.87;;
18999;SDS011;9633;50.980;13.850;2023-09-19T00:23:17;13.03;;;9.23;;
18999;SDS011;9633;50.980;13.850;2023-09-19T00:24:51;14.57;;;9.97;;
18999;SDS011;9633;50.980;13.850;2023-09-19T00:26:24;14.87;;;10.40;;
18999;SDS011;9633;50.980;13.850;2023-09-19T00:28:02;16.83;;;10.20;;
18999;SDS011;9633;50.980;13.850;2023-09-19T00:29:36;14.37;;;9.90;;
18999;SDS011;9633;50.980;13.850;2023-09-19T00:31:10;15.97;;;10.07;;
18999;SDS011;9633;50.980;13.850;2023-09-19T00:32:44;13.77;;;9.80;;
18999;SDS011;9633;50.980;13.850;2023-09-19T00:34:18;16.17;;;10.60;;
18999;SDS011;9633;50.980;13.850;2023-09-19T00:35:53;16.60;;;10.60;;
18999;SDS011;9633;50.980;13.850;2023-09-19T00:37:27;16.00;;;10.97;;
18999;SDS011;9633;50.980;13.850;2023-09-19T00:38:59;15.07;;;10.70;;
18999;SDS011;9633;50.980;13.850;2023-09-19T00:40:32;17.03;;;11.83;;
18999;SDS011;9633;50.980;13.850;2023-09-19T00:42:05;18.53;;;12.47;;
18999;SDS011;9633;50.980;13.850;2023-09-19T00:43:39;19.70;;;12.30;;
18999;SDS011;9633;50.980;13.850;2023-09-19T00:45:13;20.20;;;12.10;;
18999;SDS011;9633;50.980;13.850;2023-09-19T00:46:48;20.87;;;13.27;;
18999;SDS011;9633;50.980;13.850;2023-09-19T00:48:21;17.40;;;12.80;;
18999;SDS011;9633;50.980;13.850;2023-09-19T00:50:00;17.10;;;12.30;;
18999;SDS011;9633;50.980;13.850;2023-09-19T00:51:34;19.03;;;11.70;;
18999;SDS011;9633;50.980;13.850;2023-09-19T00:53:08;19.43;;;13.67;;
18999;SDS011;9633;50.980;13.850;2023-09-19T00:54:41;17.53;;;12.70;;
18999;SDS011;9633;50.980;13.850;2023-09-19T00:56:15;19.47;;;13.07;;
18999;SDS011;9633;50.980;13.850;2023-09-19T00:57:51;16.00;;;12.33;;
18999;SDS011;9633;50.980;13.850;2023-09-19T00:59:24;17.00;;;12.70;;
18999;SDS011;9633;50.980;13.850;2023-09-19T01:00:59;16.43;;;12.40;;
18999;SDS011;9633;50.980;13.850;2023-09-19T01:02:32;15.10;;;11.40;;
18999;SDS011;9633;50.980;13.850;2023-09-19T01:04:05;15.10;;;10.73;;
18999;SDS011;9633;50.980;13.850;2023-09-19T01:05:39;14.83;;;10.90;;
18999;SDS011;9633;50.980;13.850;2023-09-19T01:07:11;16.27;;;11.67;;
18999;SDS011;9633;50.980;13.850;2023-09-19T01:08:46;13.47;;;10.77;;
18999;SDS011;9633;50.980;13.850;2023-09-19T01:10:20;16.10;;;11.77;;
18999;SDS011;9633;50.980;13.850;2023-09-19T01:11:55;16.20;;;10.47;;
18999;SDS011;9633;50.980;13.850;2023-09-19T01:13:34;15.80;;;11.87;;
18999;SDS011;9633;50.980;13.850;2023-09-19T01:15:21;16.37;;;11.37;;
18999;SDS011;9633;50.980;13.850;2023-09-19T01:17:08;17.13;;;11.27;;
18999;SDS011;9633;50.980;13.850;2023-09-19T01:18:50;13.67;;;10.33;;
18999;SDS011;9633;50.980;13.850;2023-09-19T01:20:36;15.77;;;10.43;;
18999;SDS011;9633;50.980;13.850;2023-09-19T01:22:16;14.13;;;10.30;;
18999;SDS011;9633;50.980;13.850;2023-09-19T01:26:17;18.00;;;11.17;;
18999;SDS011;9633;50.980;13.850;2023-09-19T01:28:04;14.93;;;10.57;;
18999;SDS011;9633;50.980;13.850;2023-09-19T01:29:46;14.87;;;11.00;;
18999;SDS011;9633;50.980;13.850;2023-09-19T01:31:23;15.37;;;11.17;;
18999;SDS011;9633;50.980;13.850;2023-09-19T01:33:01;15.40;;;11.30;;
18999;SDS011;9633;50.980;13.850;2023-09-19T01:34:44;15.03;;;11.73;;
18999;SDS011;9633;50.980;13.850;2023-09-19T01:36:20;16.47;;;11.07;;
18999;SDS011;9633;50.980;13.850;2023-09-19T01:37:54;14.43;;;11.03;;
18999;SDS011;9633;50.980;13.850;2023-09-19T01:39:28;14.47;;;11.33;;
18999;SDS011;9633;50.980;13.850;2023-09-19T01:41:03;16.87;;;12.30;;
18999;SDS011;9633;50.980;13.850;2023-09-19T01:42:40;20.30;;;12.70;;
18999;SDS011;9633;50.980;13.850;2023-09-19T01:44:17;17.43;;;11.60;;
18999;SDS011;9633;50.980;13.850;2023-09-19T01:45:59;15.93;;;12.00;;
18999;SDS011;9633;50.980;13.850;2023-09-19T01:47:46;16.83;;;12.13;;
18999;SDS011;9633;50.980;13.850;2023-09-19T01:49:26;21.37;;;11.90;;
18999;SDS011;9633;50.980;13.850;2023-09-19T01:51:05;14.70;;;12.43;;
18999;SDS011;9633;50.980;13.850;2023-09-19T01:52:43;16.13;;;11.97;;
18999;SDS011;9633;50.980;13.850;2023-09-19T01:54:24;19.17;;;11.77;;
18999;SDS011;9633;50.980;13.850;2023-09-19T01:55:59;16.03;;;12.63;;
18999;SDS011;9633;50.980;13.850;2023-09-19T01:57:34;15.03;;;11.73;;
18999;SDS011;9633;50.980;13.850;2023-09-19T01:59:15;14.50;;;11.93;;
18999;SDS011;9633;50.980;13.850;2023-09-19T02:00:52;16.37;;;12.10;;
18999;SDS011;9633;50.980;13.850;2023-09-19T02:02:31;14.37;;;11.63;;
18999;SDS011;9633;50.980;13.850;2023-09-19T02:04:07;17.07;;;12.13;;
18999;SDS011;9633;50.980;13.850;2023-09-19T02:05:41;13.53;;;10.37;;
18999;SDS011;9633;50.980;13.850;2023-09-19T02:07:21;19.33;;;11.57;;
18999;SDS011;9633;50.980;13.850;2023-09-19T02:08:55;16.43;;;10.87;;
18999;SDS011;9633;50.980;13.850;2023-09-19T02:10:27;16.43;;;11.80;;
18999;SDS011;9633;50.980;13.850;2023-09-19T02:12:03;18.30;;;12.00;;
18999;SDS011;9633;50.980;13.850;2023-09-19T02:13:36;15.70;;;11.93;;
18999;SDS011;9633;50.980;13.850;2023-09-19T02:15:10;16.03;;;11.97;;
18999;SDS011;9633;50.980;13.850;2023-09-19T02:16:43;14.33;;;11.60;;
18999;SDS011;9633;50.980;13.850;2023-09-19T02:18:16;14.87;;;11.10;;
18999;SDS011;9633;50.980;13.850;2023-09-19T02:19:51;16.00;;;11.83;;
18999;SDS011;9633;50.980;13.850;2023-09-19T02:21:25;13.67;;;11.40;;
18999;SDS011;9633;50.980;13.850;2023-09-19T02:23:00;14.33;;;10.90;;
18999;SDS011;9633;50.980;13.850;2023-09-19T02:24:34;12.93;;;10.90;;
18999;SDS011;9633;50.980;13.850;2023-09-19T02:26:07;15.13;;;11.07;;
18999;SDS011;9633;50.980;13.850;2023-09-19T02:27:40;13.63;;;11.07;;
18999;SDS011;9633;50.980;13.850;2023-09-19T02:29:13;17.43;;;11.37;;
18999;SDS011;9633;50.980;13.850;2023-09-19T02:30:47;13.80;;;10.87;;
18999;SDS011;9633;50.980;13.850;2023-09-19T02:32:20;18.73;;;11.33;;
18999;SDS011;9633;50.980;13.850;2023-09-19T02:33:55;14.20;;;10.43;;
18999;SDS011;9633;50.980;13.850;2023-09-19T02:35:29;12.63;;;9.97;;
18999;SDS011;9633;50.980;13.850;2023-09-19T02:37:06;13.20;;;10.23;;
18999;SDS011;9633;50.980;13.850;2023-09-19T02:38:39;14.20;;;10.37;;
18999;SDS011;9633;50.980;13.850;2023-09-19T02:40:13;13.60;;;10.47;;
18999;SDS011;9633;50.980;13.850;2023-09-19T02:41:51;14.63;;;11.00;;
18999;SDS011;9633;50.980;13.850;2023-09-19T02:43:24;12.87;;;9.63;;
18999;SDS011;9633;50.980;13.850;2023-09-19T02:44:58;16.67;;;11.23;;
18999;SDS011;9633;50.980;13.850;2023-09-19T02:46:31;16.03;;;11.27;;
18999;SDS011;9633;50.980;13.850;2023-09-19T02:48:05;11.63;;;9.70;;
18999;SDS011;9633;50.980;13.850;2023-09-19T02:49:39;12.70;;;9.43;;
18999;SDS011;9633;50.980;13.850;2023-09-19T02:51:13;12.87;;;9.60;;
18999;SDS011;9633;50.980;13.850;2023-09-19T02:52:46;11.70;;;9.37;;
18999;SDS011;9633;50.980;13.850;2023-09-19T02:54:20;12.93;;;10.33;;
18999;SDS011;9633;50.980;13.850;2023-09-19T02:55:55;12.80;;;9.23;;
18999;SDS011;9633;50.980;13.850;2023-09-19T02:57:28;11.87;;;9.37;;
18999;SDS011;9633;50.980;13.850;2023-09-19T02:59:00;13.13;;;9.23;;
18999;SDS011;9633;50.980;13.850;2023-09-19T03:00:34;11.93;;;9.57;;
18999;SDS011;9633;50.980;13.850;2023-09-19T03:02:07;13.63;;;9.70;;
18999;SDS011;9633;50.980;13.850;2023-09-19T03:03:41;13.70;;;9.53;;
18999;SDS011;9633;50.980;13.850;2023-09-19T03:05:14;11.27;;;9.30;;
18999;SDS011;9633;50.980;13.850;2023-09-19T03:06:49;11.70;;;8.80;;
18999;SDS011;9633;50.980;13.850;2023-09-19T03:08:23;12.10;;;9.13;;
18999;SDS011;9633;50.980;13.850;2023-09-19T03:09:56;13.70;;;9.50;;
18999;SDS011;9633;50.980;13.850;2023-09-19T03:11:28;13.20;;;9.03;;
18999;SDS011;9633;50.980;13.850;2023-09-19T03:13:02;13.80;;;9.00;;
18999;SDS011;9633;50.980;13.850;2023-09-19T03:14:35;12.27;;;9.50;;
18999;SDS011;9633;50.980;13.850;2023-09-19T03:16:09;12.97;;;9.40;;
18999;SDS011;9633;50.980;13.850;2023-09-19T03:17:42;12.73;;;9.33;;
18999;SDS011;9633;50.980;13.850;2023-09-19T03:19:16;12.33;;;9.03;;
18999;SDS011;9633;50.980;13.850;2023-09-19T03:20:52;13.37;;;9.73;;
18999;SDS011;9633;50.980;13.850;2023-09-19T03:22:28;11.67;;;9.53;;
18999;SDS011;9633;50.980;13.850;2023-09-19T03:24:00;15.03;;;9.93;;
18999;SDS011;9633;50.980;13.850;2023-09-19T03:25:35;14.43;;;9.60;;
18999;SDS011;9633;50.980;13.850;2023-09-19T03:27:08;14.60;;;9.50;;
18999;SDS011;9633;50.980;13.850;2023-09-19T03:28:42;11.73;;;8.90;;
18999;SDS011;9633;50.980;13.850;2023-09-19T03:30:17;9.70;;;8.07;;
18999;SDS011;9633;50.980;13.850;2023-09-19T03:31:50;10.20;;;8.20;;
18999;SDS011;9633;50.980;13.850;2023-09-19T03:33:24;14.33;;;8.67;;
18999;SDS011;9633;50.980;13.850;2023-09-19T03:34:57;11.47;;;8.53;;
18999;SDS011;9633;50.980;13.850;2023-09-19T03:36:31;9.83;;;8.23;;
18999;SDS011;9633;50.980;13.850;2023-09-19T03:38:08;10.87;;;8.17;;
18999;SDS011;9633;50.980;13.850;2023-09-19T03:39:40;11.57;;;8.03;;
18999;SDS011;9633;50.980;13.850;2023-09-19T03:41:13;11.40;;;8.37;;
18999;SDS011;9633;50.980;13.850;2023-09-19T03:42:48;10.63;;;6.57;;
18999;SDS011;9633;50.980;13.850;2023-09-19T03:44:22;10.00;;;7.13;;
18999;SDS011;9633;50.980;13.850;2023-09-19T03:45:54;10.90;;;7.30;;
18999;SDS011;9633;50.980;13.850;2023-09-19T03:47:28;8.03;;;6.77;;
18999;SDS011;9633;50.980;13.850;2023-09-19T03:49:02;9.23;;;6.20;;
18999;SDS011;9633;50.980;13.850;2023-09-19T03:50:37;7.20;;;5.90;;
18999;SDS011;9633;50.980;13.850;2023-09-19T03:52:09;8.90;;;5.83;;
18999;SDS011;9633;50.980;13.850;2023-09-19T03:53:44;6.43;;;5.37;;
18999;SDS011;9633;50.980;13.850;2023-09-19T03:55:17;6.33;;;4.47;;
18999;SDS011;9633;50.980;13.850;2023-09-19T03:56:49;8.43;;;5.00;;
18999;SDS011;9633;50.980;13.850;2023-09-19T03:58:22;8.87;;;6.10;;
18999;SDS011;9633;50.980;13.850;2023-09-19T03:59:55;6.07;;;5.30;;
18999;SDS011;9633;50.980;13.850;2023-09-19T04:01:28;7.60;;;5.50;;
18999;SDS011;9633;50.980;13.850;2023-09-19T04:03:03;6.17;;;5.17;;
18999;SDS011;9633;50.980;13.850;2023-09-19T04:04:38;6.80;;;5.20;;
18999;SDS011;9633;50.980;13.850;2023-09-19T04:06:11;8.13;;;5.57;;
18999;SDS011;9633;50.980;13.850;2023-09-19T04:07:44;10.97;;;6.80;;
18999;SDS011;9633;50.980;13.850;2023-09-19T04:09:19;8.60;;;6.80;;
18999;SDS011;9633;50.980;13.850;2023-09-19T04:10:52;9.43;;;7.00;;
18999;SDS011;9633;50.980;13.850;2023-09-19T04:12:25;9.47;;;6.13;;
18999;SDS011;9633;50.980;13.850;2023-09-19T04:13:58;8.40;;;6.63;;
18999;SDS011;9633;50.980;13.850;2023-09-19T04:15:31;8.47;;;6.20;;
18999;SDS011;9633;50.980;13.850;2023-09-19T04:17:04;7.27;;;6.00;;
18999;SDS011;9633;50.980;13.850;2023-09-19T04:18:40;9.27;;;5.73;;
18999;SDS011;9633;50.980;13.850;2023-09-19T04:20:13;9.73;;;5.80;;
18999;SDS011;9633;50.980;13.850;2023-09-19T04:21:46;6.50;;;5.10;;
18999;SDS011;9633;50.980;13.850;2023-09-19T04:23:19;6.43;;;4.83;;
18999;SDS011;9633;50.980;13.850;2023-09-19T04:24:53;6.70;;;4.87;;
18999;SDS011;9633;50.980;13.850;2023-09-19T04:26:26;9.50;;;4.97;;
18999;SDS011;9633;50.980;13.850;2023-09-19T04:28:00;5.00;;;4.50;;
18999;SDS011;9633;50.980;13.850;2023-09-19T04:29:32;6.50;;;3.70;;
18999;SDS011;9633;50.980;13.850;2023-09-19T04:31:05;5.83;;;4.37;;
18999;SDS011;9633;50.980;13.850;2023-09-19T04:32:40;5.27;;;4.30;;
18999;SDS011;9633;50.980;13.850;2023-09-19T04:34:12;4.13;;;3.70;;
18999;SDS011;9633;50.980;13.850;2023-09-19T04:35:49;5.33;;;4.10;;
18999;SDS011;9633;50.980;13.850;2023-09-19T04:37:22;3.97;;;3.13;;
18999;SDS011;9633;50.980;13.850;2023-09-19T04:38:55;5.83;;;3.47;;
18999;SDS011;9633;50.980;13.850;2023-09-19T04:40:30;3.60;;;3.30;;
18999;SDS011;9633;50.980;13.850;2023-09-19T04:42:05;4.33;;;3.37;;
18999;SDS011;9633;50.980;13.850;2023-09-19T04:43:38;4.00;;;3.30;;
18999;SDS011;9633;50.980;13.850;2023-09-19T04:45:11;4.90;;;3.57;;
18999;SDS011;9633;50.980;13.850;2023-09-19T04:46:43;4.00;;;3.43;;
18999;SDS011;9633;50.980;13.850;2023-09-19T04:48:17;6.83;;;3.53;;
18999;SDS011;9633;50.980;13.850;2023-09-19T04:49:50;5.33;;;3.90;;
18999;SDS011;9633;50.980;13.850;2023-09-19T04:51:23;6.30;;;3.70;;
18999;SDS011;9633;50.980;13.850;2023-09-19T04:52:57;5.03;;;3.60;;
18999;SDS011;9633;50.980;13.850;2023-09-19T04:54:29;5.73;;;3.20;;
18999;SDS011;9633;50.980;13.850;2023-09-19T04:56:03;4.13;;;2.80;;
18999;SDS011;9633;50.980;13.850;2023-09-19T04:57:39;2.87;;;2.27;;
18999;SDS011;9633;50.980;13.850;2023-09-19T04:59:12;4.23;;;2.20;;
18999;SDS011;9633;50.980;13.850;2023-09-19T05:00:46;3.10;;;2.03;;
18999;SDS011;9633;50.980;13.850;2023-09-19T05:02:19;3.00;;;1.80;;
18999;SDS011;9633;50.980;13.850;2023-09-19T05:03:52;2.67;;;1.60;;
18999;SDS011;9633;50.980;13.850;2023-09-19T05:05:25;2.63;;;1.63;;
18999;SDS011;9633;50.980;13.850;2023-09-19T05:06:58;2.57;;;2.00;;
18999;SDS011;9633;50.980;13.850;2023-09-19T05:08:32;3.40;;;1.90;;
18999;SDS011;9633;50.980;13.850;2023-09-19T05:10:05;2.67;;;1.70;;
18999;SDS011;9633;50.980;13.850;2023-09-19T05:11:40;4.13;;;1.50;;
18999;SDS011;9633;50.980;13.850;2023-09-19T05:13:13;2.63;;;1.77;;
18999;SDS011;9633;50.980;13.850;2023-09-19T05:14:46;2.33;;;1.60;;
18999;SDS011;9633;50.980;13.850;2023-09-19T05:16:19;2.27;;;1.53;;
18999;SDS011;9633;50.980;13.850;2023-09-19T05:17:52;2.10;;;1.90;;
18999;SDS011;9633;50.980;13.850;2023-09-19T05:19:29;2.90;;;1.77;;
18999;SDS011;9633;50.980;13.850;2023-09-19T05:21:02;1.97;;;1.73;;
18999;SDS011;9633;50.980;13.850;2023-09-19T05:22:34;3.07;;;1.50;;
18999;SDS011;9633;50.980;13.850;2023-09-19T05:24:07;3.40;;;1.60;;
18999;SDS011;9633;50.980;13.850;2023-09-19T05:25:42;2.00;;;1.60;;
18999;SDS011;9633;50.980;13.850;2023-09-19T05:27:16;2.43;;;1.67;;
18999;SDS011;9633;50.980;13.850;2023-09-19T05:28:49;2.03;;;1.70;;
18999;SDS011;9633;50.980;13.850;2023-09-19T05:30:24;3.63;;;1.67;;
18999;SDS011;9633;50.980;13.850;2023-09-19T05:31:58;2.03;;;1.70;;
18999;SDS011;9633;50.980;13.850;2023-09-19T05:33:31;2.30;;;1.50;;
18999;SDS011;9633;50.980;13.850;2023-09-19T05:35:04;1.90;;;1.43;;
18999;SDS011;9633;50.980;13.850;2023-09-19T05:36:40;3.10;;;1.57;;
18999;SDS011;9633;50.980;13.850;2023-09-19T05:38:13;1.80;;;1.47;;
18999;SDS011;9633;50.980;13.850;2023-09-19T05:39:50;2.53;;;1.60;;
18999;SDS011;9633;50.980;13.850;2023-09-19T05:41:22;2.17;;;1.73;;
18999;SDS011;9633;50.980;13.850;2023-09-19T05:42:57;2.80;;;1.60;;
18999;SDS011;9633;50.980;13.850;2023-09-19T05:44:30;2.07;;;1.53;;
18999;SDS011;9633;50.980;13.850;2023-09-19T05:46:04;2.60;;;1.60;;
18999;SDS011;9633;50.980;13.850;2023-09-19T05:47:37;1.83;;;1.33;;
18999;SDS011;9633;50.980;13.850;2023-09-19T05:49:11;2.33;;;1.60;;
18999;SDS011;9633;50.980;13.850;2023-09-19T05:50:45;2.80;;;1.50;;
18999;SDS011;9633;50.980;13.850;2023-09-19T05:52:18;1.63;;;1.53;;
18999;SDS011;9633;50.980;13.850;2023-09-19T05:53:53;2.97;;;1.70;;
18999;SDS011;9633;50.980;13.850;2023-09-19T05:55:26;2.40;;;1.60;;
18999;SDS011;9633;50.980;13.850;2023-09-19T05:57:00;1.40;;;1.30;;
18999;SDS011;9633;50.980;13.850;2023-09-19T05:58:35;1.70;;;1.40;;
18999;SDS011;9633;50.980;13.850;2023-09-19T06:00:07;3.07;;;1.40;;
18999;SDS011;9633;50.980;13.850;2023-09-19T06:01:44;1.80;;;1.70;;
18999;SDS011;9633;50.980;13.850;2023-09-19T06:03:18;2.10;;;1.50;;
18999;SDS011;9633;50.980;13.850;2023-09-19T06:04:52;1.80;;;1.30;;
18999;SDS011;9633;50.980;13.850;2023-09-19T06:06:24;1.53;;;1.30;;
18999;SDS011;9633;50.980;13.850;2023-09-19T06:07:58;2.27;;;1.40;;
18999;SDS011;9633;50.980;13.850;2023-09-19T06:09:32;1.60;;;1.33;;
18999;SDS011;9633;50.980;13.850;2023-09-19T06:11:05;2.63;;;1.60;;
18999;SDS011;9633;50.980;13.850;2023-09-19T06:12:38;2.40;;;1.37;;
18999;SDS011;9633;50.980;13.850;2023-09-19T06:14:13;2.77;;;1.57;;
18999;SDS011;9633;50.980;13.850;2023-09-19T06:15:48;1.30;;;1.10;;
18999;SDS011;9633;50.980;13.850;2023-09-19T06:17:22;2.17;;;1.50;;
18999;SDS011;9633;50.980;13.850;2023-09-19T06:18:54;2.60;;;1.37;;
18999;SDS011;9633;50.980;13.850;2023-09-19T06:20:28;1.67;;;1.50;;
18999;SDS011;9633;50.980;13.850;2023-09-19T06:22:01;3.43;;;1.40;;
18999;SDS011;9633;50.980;13.850;2023-09-19T06:23:35;1.57;;;1.40;;
18999;SDS011;9633;50.980;13.850;2023-09-19T06:25:07;1.80;;;1.27;;
18999;SDS011;9633;50.980;13.850;2023-09-19T06:26:42;3.10;;;1.40;;
18999;SDS011;9633;50.980;13.850;2023-09-19T06:28:15;2.83;;;1.90;;
18999;SDS011;9633;50.980;13.850;2023-09-19T06:29:55;2.57;;;1.10;;
18999;SDS011;9633;50.980;13.850;2023-09-19T06:31:28;1.60;;;1.50;;
18999;SDS011;9633;50.980;13.850;2023-09-19T06:33:02;3.10;;;1.53;;
18999;SDS011;9633;50.980;13.850;2023-09-19T06:34:35;1.57;;;1.30;;
18999;SDS011;9633;50.980;13.850;2023-09-19T06:36:10;1.53;;;1.33;;
18999;SDS011;9633;50.980;13.850;2023-09-19T06:37:43;3.63;;;1.40;;
18999;SDS011;9633;50.980;13.850;2023-09-19T06:39:15;1.97;;;1.40;;
18999;SDS011;9633;50.980;13.850;2023-09-19T06:40:48;2.27;;;1.30;;
18999;SDS011;9633;50.980;13.850;2023-09-19T06:42:21;1.63;;;1.23;;
18999;SDS011;9633;50.980;13.850;2023-09-19T06:43:57;1.60;;;1.30;;
18999;SDS011;9633;50.980;13.850;2023-09-19T06:45:31;2.73;;;1.60;;
18999;SDS011;9633;50.980;13.850;2023-09-19T06:47:04;1.80;;;1.50;;
18999;SDS011;9633;50.980;13.850;2023-09-19T06:48:37;2.50;;;1.40;;
18999;SDS011;9633;50.980;13.850;2023-09-19T06:50:10;3.03;;;1.60;;
18999;SDS011;9633;50.980;13.850;2023-09-19T06:51:45;3.07;;;1.50;;
18999;SDS011;9633;50.980;13.850;2023-09-19T06:53:21;2.30;;;1.27;;
18999;SDS011;9633;50.980;13.850;2023-09-19T06:54:55;3.03;;;1.70;;
18999;SDS011;9633;50.980;13.850;2023-09-19T06:56:28;2.43;;;1.50;;
18999;SDS011;9633;50.980;13.850;2023-09-19T06:58:01;1.97;;;1.60;;
18999;SDS011;9633;50.980;13.850;2023-09-19T06:59:34;1.90;;;1.37;;
18999;SDS011;9633;50.980;13.850;2023-09-19T07:01:09;1.20;;;1.00;;
18999;SDS011;9633;50.980;13.850;2023-09-19T07:02:42;2.20;;;1.20;;
18999;SDS011;9633;50.980;13.850;2023-09-19T07:04:15;2.53;;;1.10;;
18999;SDS011;9633;50.980;13.850;2023-09-19T07:05:48;1.20;;;0.97;;
18999;SDS011;9633;50.980;13.850;2023-09-19T07:07:20;2.90;;;1.10;;
18999;SDS011;9633;50.980;13.850;2023-09-19T07:08:53;1.97;;;1.13;;
18999;SDS011;9633;50.980;13.850;2023-09-19T07:10:27;1.20;;;1.00;;
18999;SDS011;9633;50.980;13.850;2023-09-19T07:12:00;1.47;;;1.03;;
18999;SDS011;9633;50.980;13.850;2023-09-19T07:13:36;3.37;;;1.00;;
18999;SDS011;9633;50.980;13.850;2023-09-19T07:15:10;1.67;;;1.20;;
18999;SDS011;9633;50.980;13.850;2023-09-19T07:16:44;1.80;;;1.20;;
18999;SDS011;9633;50.980;13.850;2023-09-19T07:18:19;1.77;;;1.07;;
18999;SDS011;9633;50.980;13.850;2023-09-19T07:19:51;1.97;;;1.10;;
18999;SDS011;9633;50.980;13.850;2023-09-19T07:21:25;1.60;;;0.90;;
18999;SDS011;9633;50.980;13.850;2023-09-19T07:22:58;2.97;;;1.30;;
18999;SDS011;9633;50.980;13.850;2023-09-19T07:24:31;2.07;;;0.90;;
18999;SDS011;9633;50.980;13.850;2023-09-19T07:26:05;2.40;;;1.17;;
18999;SDS011;9633;50.980;13.850;2023-09-19T07:27:37;1.97;;;1.10;;
18999;SDS011;9633;50.980;13.850;2023-09-19T07:29:10;1.87;;;0.93;;
18999;SDS011;9633;50.980;13.850;2023-09-19T07:30:42;1.30;;;1.00;;
18999;SDS011;9633;50.980;13.850;2023-09-19T07:32:17;2.17;;;1.07;;
18999;SDS011;9633;50.980;13.850;2023-09-19T07:33:49;1.50;;;1.10;;
18999;SDS011;9633;50.980;13.850;2023-09-19T07:35:23;2.50;;;1.10;;
18999;SDS011;9633;50.980;13.850;2023-09-19T07:36:55;3.70;;;1.33;;
18999;SDS011;9633;50.980;13.850;2023-09-19T07:38:28;2.87;;;1.10;;
18999;SDS011;9633;50.980;13.850;2023-09-19T07:40:01;1.20;;;1.10;;
18999;SDS011;9633;50.980;13.850;2023-09-19T07:41:38;1.33;;;1.23;;
18999;SDS011;9633;50.980;13.850;2023-09-19T07:43:10;1.80;;;1.10;;
18999;SDS011;9633;50.980;13.850;2023-09-19T07:44:43;1.33;;;1.10;;
18999;SDS011;9633;50.980;13.850;2023-09-19T07:46:18;3.37;;;1.23;;
18999;SDS011;9633;50.980;13.850;2023-09-19T07:47:53;1.50;;;1.20;;
18999;SDS011;9633;50.980;13.850;2023-09-19T07:49:27;2.17;;;1.20;;
18999;SDS011;9633;50.980;13.850;2023-09-19T07:51:03;1.30;;;1.10;;
18999;SDS011;9633;50.980;13.850;2023-09-19T07:52:36;5.33;;;1.60;;
18999;SDS011;9633;50.980;13.850;2023-09-19T07:54:11;1.43;;;1.30;;
18999;SDS011;9633;50.980;13.850;2023-09-19T07:55:46;1.23;;;1.00;;
18999;SDS011;9633;50.980;13.850;2023-09-19T07:57:19;2.77;;;1.10;;
18999;SDS011;9633;50.980;13.850;2023-09-19T07:58:53;1.90;;;1.17;;
18999;SDS011;9633;50.980;13.850;2023-09-19T08:00:26;3.63;;;1.13;;
18999;SDS011;9633;50.980;13.850;2023-09-19T08:01:59;2.43;;;1.07;;
18999;SDS011;9633;50.980;13.850;2023-09-19T08:03:34;1.93;;;1.03;;
18999;SDS011;9633;50.980;13.850;2023-09-19T08:05:12;2.00;;;1.07;;
18999;SDS011;9633;50.980;13.850;2023-09-19T08:06:48;2.37;;;1.10;;
18999;SDS011;9633;50.980;13.850;2023-09-19T08:08:23;1.50;;;1.00;;
18999;SDS011;9633;50.980;13.850;2023-09-19T08:09:57;3.03;;;0.93;;
18999;SDS011;9633;50.980;13.850;2023-09-19T08:11:30;1.90;;;0.87;;
18999;SDS011;9633;50.980;13.850;2023-09-19T08:13:04;1.57;;;1.20;;
18999;SDS011;9633;50.980;13.850;2023-09-19T08:14:37;1.50;;;0.90;;
18999;SDS011;9633;50.980;13.850;2023-09-19T08:16:13;1.87;;;0.83;;
18999;SDS011;9633;50.980;13.850;2023-09-19T08:17:47;1.90;;;1.00;;
18999;SDS011;9633;50.980;13.850;2023-09-19T08:19:23;1.37;;;0.87;;
18999;SDS011;9633;50.980;13.850;2023-09-19T08:20:59;1.60;;;0.83;;
18999;SDS011;9633;50.980;13.850;2023-09-19T08:22:33;1.67;;;1.00;;
18999;SDS011;9633;50.980;13.850;2023-09-19T08:24:06;1.27;;;0.90;;
18999;SDS011;9633;50.980;13.850;2023-09-19T08:25:40;1.10;;;0.80;;
18999;SDS011;9633;50.980;13.850;2023-09-19T08:27:12;1.83;;;1.00;;
18999;SDS011;9633;50.980;13.850;2023-09-19T08:28:46;2.23;;;1.10;;
18999;SDS011;9633;50.980;13.850;2023-09-19T08:30:20;1.50;;;0.97;;
18999;SDS011;9633;50.980;13.850;2023-09-19T08:31:56;1.10;;;0.90;;
18999;SDS011;9633;50.980;13.850;2023-09-19T08:33:31;2.03;;;0.90;;
18999;SDS011;9633;50.980;13.850;2023-09-19T08:35:06;1.93;;;1.00;;
18999;SDS011;9633;50.980;13.850;2023-09-19T08:36:40;1.63;;;0.90;;
18999;SDS011;9633;50.980;13.850;2023-09-19T08:38:14;1.23;;;1.00;;
18999;SDS011;9633;50.980;13.850;2023-09-19T08:39:48;1.93;;;1.10;;
18999;SDS011;9633;50.980;13.850;2023-09-19T08:41:20;1.50;;;1.20;;
18999;SDS011;9633;50.980;13.850;2023-09-19T08:42:54;2.43;;;1.00;;
18999;SDS011;9633;50.980;13.850;2023-09-19T08:44:27;1.70;;;1.10;;
18999;SDS011;9633;50.980;13.850;2023-09-19T08:46:03;2.10;;;1.27;;
18999;SDS011;9633;50.980;13.850;2023-09-19T08:47:44;1.63;;;1.03;;
18999;SDS011;9633;50.980;13.850;2023-09-19T08:49:24;2.67;;;0.90;;
18999;SDS011;9633;50.980;13.850;2023-09-19T08:51:06;1.60;;;1.03;;
18999;SDS011;9633;50.980;13.850;2023-09-19T08:52:43;1.80;;;1.30;;
18999;SDS011;9633;50.980;13.850;2023-09-19T08:54:21;2.37;;;1.00;;
18999;SDS011;9633;50.980;13.850;2023-09-19T08:55:58;2.27;;;1.30;;
18999;SDS011;9633;50.980;13.850;2023-09-19T08:57:33;1.90;;;1.20;;
18999;SDS011;9633;50.980;13.850;2023-09-19T08:59:10;3.03;;;1.27;;
18999;SDS011;9633;50.980;13.850;2023-09-19T09:00:45;2.07;;;1.43;;
18999;SDS011;9633;50.980;13.850;2023-09-19T09:02:21;2.97;;;1.40;;
18999;SDS011;9633;50.980;13.850;2023-09-19T09:03:56;3.30;;;1.20;;
18999;SDS011;9633;50.980;13.850;2023-09-19T09:05:29;2.90;;;1.30;;
18999;SDS011;9633;50.980;13.850;2023-09-19T09:07:06;1.63;;;1.20;;
18999;SDS011;9633;50.980;13.850;2023-09-19T09:08:44;1.63;;;1.40;;
18999;SDS011;9633;50.980;13.850;2023-09-19T09:10:16;1.67;;;1.40;;
18999;SDS011;9633;50.980;13.850;2023-09-19T09:11:50;3.50;;;1.40;;
18999;SDS011;9633;50.980;13.850;2023-09-19T09:13:24;2.17;;;1.20;;
18999;SDS011;9633;50.980;13.850;2023-09-19T09:14:57;2.23;;;1.43;;
18999;SDS011;9633;50.980;13.850;2023-09-19T09:16:31;2.43;;;1.20;;
18999;SDS011;9633;50.980;13.850;2023-09-19T09:18:04;1.40;;;1.10;;
18999;SDS011;9633;50.980;13.850;2023-09-19T09:19:36;2.00;;;1.20;;
18999;SDS011;9633;50.980;13.850;2023-09-19T09:21:10;4.07;;;1.00;;
18999;SDS011;9633;50.980;13.850;2023-09-19T09:22:51;2.27;;;1.20;;
18999;SDS011;9633;50.980;13.850;2023-09-19T09:24:26;1.60;;;1.30;;
18999;SDS011;9633;50.980;13.850;2023-09-19T09:26:00;4.43;;;1.17;;
18999;SDS011;9633;50.980;13.850;2023-09-19T09:27:36;2.07;;;1.10;;